Time;durP1;ratioP1;P1;durP2;ratioP2;P2;SDS_P1;SDS_P2;PMS_P1;PMS_P2;Temp;Humidity;BMP_temperature;BMP_pressure;BME280_temperature;BME280_humidity;BME280_pressure;Samples;Min_cycle;Max_cycle;Signal;HPM_P1;HPM_P2
2022/04/25 00:02:38;;;;;;;3.83;1.90;;;11.90;56.00;;;;;;8365260;28;20041;-68
2022/04/25 00:06:40;;;;;;;4.50;1.90;;;11.90;56.10;;;;;;8364164;28;19921;-68
2022/04/25 00:10:42;;;;;;;4.15;1.92;;;11.80;56.60;;;;;;8366838;28;20056;-68
2022/04/25 00:14:43;;;;;;;3.65;1.90;;;11.70;56.20;;;;;;8382275;28;20482;-68
2022/04/25 00:18:47;;;;;;;4.20;1.90;;;11.60;56.50;;;;;;8379850;28;19927;-68
2022/04/25 00:22:48;;;;;;;;;;;11.60;55.70;;;;;;8371929;28;20047;-68
2022/04/25 00:26:50;;;;;;;;;;;11.60;56.20;;;;;;8384997;28;19928;-68
2022/04/25 00:30:52;;;;;;;;;;;11.50;56.40;;;;;;8377031;28;19955;-68
2022/04/25 00:34:53;;;;;;;;;;;11.50;56.20;;;;;;8386275;28;20307;-68
2022/04/25 00:38:55;;;;;;;;;;;11.40;56.40;;;;;;8369810;28;20159;-68
2022/04/25 00:42:57;;;;;;;;;;;11.30;56.20;;;;;;8373447;28;19920;-68
2022/04/25 00:46:59;;;;;;;;;;;11.30;56.40;;;;;;8380392;28;19925;-68
2022/04/25 00:51:00;;;;;;;;;;;11.20;57.30;;;;;;8372445;28;20281;-68
2022/04/25 00:55:03;;;;;;;;;;;11.10;57.40;;;;;;8364556;28;19932;-68
2022/04/25 00:59:06;;;;;;;;;;;11.10;56.70;;;;;;8372438;28;20407;-68
2022/04/25 01:03:08;;;;;;;;;;;11.00;56.80;;;;;;8374846;28;19924;-68
2022/04/25 01:07:10;;;;;;;;;;;11.00;57.30;;;;;;8371356;28;20376;-68
2022/04/25 01:11:13;;;;;;;;;;;10.90;56.80;;;;;;8410101;28;20302;-68
2022/04/25 01:15:15;;;;;;;;;;;10.80;57.20;;;;;;8377270;28;19925;-68
2022/04/25 01:19:17;;;;;;;;;;;10.80;57.50;;;;;;8379036;28;19929;-68
2022/04/25 01:27:42;;;;;;;;;;;10.70;57.40;;;;;;8367322;28;19932;-68
2022/04/25 01:31:44;;;;;;;;;;;10.60;57.60;;;;;;8367970;28;19928;-68
2022/04/25 01:35:45;;;;;;;;;;;10.60;57.70;;;;;;8380498;28;19982;-68
2022/04/25 01:39:48;;;;;;;;;;;10.60;57.50;;;;;;8363697;28;19931;-68
2022/04/25 01:43:50;;;;;;;;;;;10.50;57.50;;;;;;8373012;28;19931;-68
2022/04/25 01:47:51;;;;;;;;;;;10.50;57.70;;;;;;8383143;28;19928;-68
2022/04/25 01:51:53;;;;;;;;;;;10.40;58.00;;;;;;8380787;28;19955;-68
2022/04/25 01:55:55;;;;;;;;;;;10.40;58.00;;;;;;8375800;28;20367;-68
2022/04/25 01:59:57;;;;;;;;;;;10.30;58.20;;;;;;8376716;28;19925;-68
2022/04/25 02:03:58;;;;;;;;;;;10.30;58.50;;;;;;8379008;28;19936;-68
2022/04/25 02:08:00;;;;;;;;;;;10.20;58.40;;;;;;8367225;28;19929;-68
2022/04/25 02:12:02;;;;;;;;;;;10.20;58.80;;;;;;8362393;28;19932;-68
2022/04/25 02:16:04;;;;;;;6.05;2.20;;;10.20;58.80;;;;;;8370007;28;20273;-68
2022/04/25 02:20:07;;;;;;;4.68;2.08;;;10.10;58.90;;;;;;8372475;28;20087;-68
2022/04/25 02:24:09;;;;;;;4.80;2.08;;;10.10;59.00;;;;;;8386620;28;20059;-68
2022/04/25 02:28:10;;;;;;;5.85;2.28;;;10.10;58.70;;;;;;8370116;28;20080;-68
2022/04/25 02:32:12;;;;;;;4.50;2.17;;;10.00;58.90;;;;;;8387612;28;20474;-68
2022/04/25 02:36:15;;;;;;;5.03;2.22;;;10.00;58.90;;;;;;8391178;28;19926;-68
2022/04/25 02:40:16;;;;;;;5.40;2.20;;;9.90;59.90;;;;;;8377154;28;20045;-68
2022/04/25 02:44:20;;;;;;;4.57;2.22;;;9.90;60.20;;;;;;8376508;28;20059;-68
2022/04/25 02:48:21;;;;;;;6.10;2.60;;;9.90;60.40;;;;;;8376931;28;20077;-68
2022/04/25 02:52:23;;;;;;;4.97;2.30;;;9.80;60.20;;;;;;8376221;28;20093;-68
2022/04/25 02:56:25;;;;;;;5.38;2.15;;;9.80;60.30;;;;;;8370856;28;20056;-68
2022/04/25 03:00:26;;;;;;;5.43;2.28;;;9.70;60.40;;;;;;8381890;28;20041;-68
2022/04/25 03:04:28;;;;;;;4.10;2.05;;;9.70;60.30;;;;;;8377847;28;20044;-68
2022/04/25 03:08:30;;;;;;;4.70;2.33;;;9.70;60.40;;;;;;8375556;28;20055;-68
2022/04/25 03:12:37;;;;;;;5.67;2.77;;;9.60;60.50;;;;;;8377313;28;20088;-68
2022/04/25 03:16:39;;;;;;;6.23;2.33;;;9.60;60.50;;;;;;8381722;28;20044;-68
2022/04/25 03:20:44;;;;;;;5.20;2.30;;;9.50;60.40;;;;;;8381690;28;20056;-68
2022/04/25 03:24:45;;;;;;;4.60;2.40;;;9.40;60.40;;;;;;8389180;28;19927;-68
2022/04/25 03:28:47;;;;;;;4.90;2.10;;;9.40;60.70;;;;;;8407763;28;20136;-68
2022/04/25 03:32:49;;;;;;;;;;;9.30;60.70;;;;;;8370491;28;19921;-68
2022/04/25 03:36:56;;;;;;;4.63;2.17;;;9.20;61.00;;;;;;8388274;28;19963;-68
2022/04/25 03:40:59;;;;;;;4.60;2.20;;;9.20;61.20;;;;;;8371444;28;20077;-68
2022/04/25 03:45:02;;;;;;;4.60;2.40;;;9.20;61.50;;;;;;8384910;28;19927;-68
2022/04/25 03:49:04;;;;;;;6.80;3.15;;;9.20;60.90;;;;;;8378393;28;19928;-68
2022/04/25 03:53:10;;;;;;;6.60;2.50;;;9.10;61.30;;;;;;8381485;28;20048;-68
2022/04/25 03:57:14;;;;;;;5.00;2.13;;;9.10;61.50;;;;;;8416950;27;20048;-68
2022/04/25 04:01:16;;;;;;;5.50;2.20;;;9.10;61.80;;;;;;8413454;28;20420;-68
2022/04/25 04:05:18;;;;;;;6.75;2.45;;;9.00;61.50;;;;;;8375662;28;20073;-68
2022/04/25 04:13:40;;;;;;;4.97;2.33;;;9.00;61.50;;;;;;8369820;28;20081;-68
2022/04/25 04:17:43;;;;;;;8.95;2.70;;;9.00;62.80;;;;;;8362716;28;20051;-68
2022/04/25 04:21:45;;;;;;;5.43;2.70;;;8.90;62.30;;;;;;8373521;28;20097;-68
2022/04/25 04:25:47;;;;;;;5.57;2.53;;;8.90;62.00;;;;;;8372711;28;20053;-68
2022/04/25 04:29:49;;;;;;;5.13;2.40;;;8.90;62.50;;;;;;8372957;28;20056;-68
2022/04/25 04:33:51;;;;;;;4.55;2.22;;;8.90;62.80;;;;;;8369091;28;20075;-68
2022/04/25 04:37:52;;;;;;;5.85;2.30;;;8.90;63.80;;;;;;8373509;28;20489;-68
2022/04/25 04:41:54;;;;;;;4.95;2.08;;;9.00;64.10;;;;;;8364992;28;20056;-68
2022/04/25 04:45:56;;;;;;;4.32;1.80;;;9.10;64.30;;;;;;8370872;28;20083;-68
2022/04/25 04:49:57;;;;;;;4.68;2.13;;;9.10;64.70;;;;;;8379189;28;20056;-68
2022/04/25 04:53:59;;;;;;;4.20;1.95;;;9.20;66.40;;;;;;8375671;28;20045;-68
2022/04/25 04:58:02;;;;;;;3.72;1.63;;;9.20;67.40;;;;;;8374400;28;20071;-68
2022/04/25 05:02:05;;;;;;;3.97;1.70;;;9.20;66.40;;;;;;8374973;28;20052;-68
2022/04/25 05:06:08;;;;;;;5.68;2.15;;;9.30;65.90;;;;;;8374303;28;20056;-68
2022/04/25 05:10:10;;;;;;;4.03;1.80;;;9.40;66.70;;;;;;8387608;28;20049;-68
2022/04/25 05:14:14;;;;;;;4.72;1.95;;;9.40;67.80;;;;;;8390004;28;20052;-67
2022/04/25 05:18:16;;;;;;;4.88;2.00;;;9.40;68.20;;;;;;8393379;28;20515;-67
2022/04/25 05:22:17;;;;;;;4.50;1.85;;;9.50;67.60;;;;;;8392279;28;20056;-68
2022/04/25 05:26:19;;;;;;;5.60;1.90;;;9.50;66.90;;;;;;8388582;28;20056;-68
2022/04/25 05:30:24;;;;;;;4.00;1.98;;;9.50;67.10;;;;;;8389372;28;20083;-68
2022/04/25 05:34:25;;;;;;;4.82;2.35;;;9.60;67.10;;;;;;8391272;28;20106;-68
2022/04/25 05:38:27;;;;;;;4.32;1.95;;;9.60;67.50;;;;;;8392136;28;20044;-68
2022/04/25 05:42:29;;;;;;;6.18;2.25;;;9.60;67.30;;;;;;8389658;28;20063;-68
2022/04/25 05:46:33;;;;;;;4.22;1.98;;;9.70;67.40;;;;;;8402479;28;20047;-68
2022/04/25 05:54:55;;;;;;;4.72;2.30;;;9.70;67.60;;;;;;8388079;28;20053;-67
2022/04/25 05:58:57;;;;;;;4.70;2.28;;;9.70;68.10;;;;;;8376021;28;20044;-68
2022/04/25 06:02:59;;;;;;;4.05;1.92;;;9.70;68.00;;;;;;8403862;28;20040;-67
2022/04/25 06:07:04;;;;;;;4.28;1.80;;;9.70;68.30;;;;;;8386604;28;20048;-67
2022/04/25 06:11:06;;;;;;;4.47;2.17;;;9.80;68.50;;;;;;8362672;28;20515;-67
2022/04/25 06:15:09;;;;;;;4.25;2.05;;;9.80;68.70;;;;;;8359115;28;20542;-68
2022/04/25 06:19:10;;;;;;;4.50;2.10;;;9.80;69.10;;;;;;8363093;28;20389;-67
2022/04/25 06:23:12;;;;;;;4.63;2.22;;;9.80;69.60;;;;;;8362721;28;20390;-67
2022/04/25 06:27:14;;;;;;;3.92;1.90;;;9.90;69.80;;;;;;8362699;28;20052;-67
2022/04/25 06:31:16;;;;;;;4.13;1.90;;;9.90;69.80;;;;;;8363883;28;20087;-67
2022/04/25 06:35:20;;;;;;;5.28;1.98;;;10.00;69.40;;;;;;8356521;28;20049;-67
2022/04/25 06:39:22;;;;;;;4.40;2.30;;;10.00;69.30;;;;;;8393667;27;20052;-67
2022/04/25 06:43:23;;;;;;;4.63;2.08;;;10.10;69.60;;;;;;8352239;28;20501;-67
2022/04/25 06:47:25;;;;;;;5.30;2.33;;;10.10;70.30;;;;;;8353879;28;20080;-67
2022/04/25 06:51:27;;;;;;;4.57;2.35;;;10.00;70.30;;;;;;8368222;28;20533;-67
2022/04/25 06:55:29;;;;;;;4.97;2.33;;;10.10;70.60;;;;;;8370688;28;20048;-67
2022/04/25 06:59:31;;;;;;;5.70;2.38;;;10.00;70.60;;;;;;8352381;28;20041;-67
2022/04/25 07:03:34;;;;;;;5.97;2.63;;;10.10;72.00;;;;;;8364122;28;20056;-67
2022/04/25 07:07:36;;;;;;;4.90;2.38;;;10.10;71.60;;;;;;8354683;28;20055;-67
2022/04/25 07:11:43;;;;;;;5.45;2.30;;;10.10;71.50;;;;;;8358776;28;20053;-67
2022/04/25 07:15:45;;;;;;;4.95;2.22;;;10.10;71.40;;;;;;8395226;28;20492;-67
2022/04/25 07:19:47;;;;;;;4.45;2.17;;;10.10;72.00;;;;;;8366611;28;20048;-67
2022/04/25 07:32:30;;;;;;;4.57;2.25;;;10.20;72.30;;;;;;8357715;28;20443;-67
2022/04/25 07:36:32;;;;;;;4.10;2.13;;;10.20;72.40;;;;;;8355682;28;20137;-67
2022/04/25 07:40:33;;;;;;;4.65;2.25;;;10.20;72.70;;;;;;8361940;28;20041;-67
2022/04/25 07:44:35;;;;;;;4.32;2.20;;;10.20;72.80;;;;;;8355066;28;20050;-67
2022/04/25 07:48:38;;;;;;;4.65;2.17;;;10.30;72.80;;;;;;8357380;28;20051;-67
2022/04/25 07:52:41;;;;;;;4.32;2.47;;;10.20;73.20;;;;;;8379078;28;20053;-67
2022/04/25 07:56:42;;;;;;;4.80;2.05;;;10.30;73.40;;;;;;8387638;28;20188;-67
2022/04/25 08:00:44;;;;;;;4.53;2.10;;;10.30;73.60;;;;;;8390483;27;20041;-67
2022/04/25 08:04:46;;;;;;;4.85;2.15;;;10.30;73.70;;;;;;8362584;28;20128;-67
2022/04/25 08:08:49;;;;;;;4.05;1.98;;;10.30;73.80;;;;;;8356564;28;20076;-67
2022/04/25 08:21:31;;;;;;;4.97;2.40;;;10.30;74.20;;;;;;8359434;28;20408;-67
2022/04/25 08:25:33;;;;;;;3.70;1.83;;;10.30;74.30;;;;;;8355374;28;20091;-67
2022/04/25 08:29:35;;;;;;;4.65;1.73;;;10.30;74.70;;;;;;8352905;28;20048;-67
2022/04/25 08:33:37;;;;;;;5.18;2.40;;;10.40;75.00;;;;;;8351927;28;20048;-67
2022/04/25 08:37:39;;;;;;;5.10;2.60;;;10.40;75.00;;;;;;8352021;28;20049;-67
2022/04/25 08:41:47;;;;;;;4.13;2.03;;;10.40;75.20;;;;;;8353158;28;20397;-67
2022/04/25 08:45:50;;;;;;;4.10;2.20;;;10.40;74.90;;;;;;8362133;28;20055;-67
2022/04/25 08:49:52;;;;;;;4.13;1.98;;;10.40;75.20;;;;;;8387964;28;20045;-67
2022/04/25 08:53:56;;;;;;;3.97;2.20;;;10.40;75.10;;;;;;8352186;28;20052;-67
2022/04/25 08:57:59;;;;;;;4.10;2.05;;;10.40;75.70;;;;;;8384669;27;20459;-67
2022/04/25 09:02:01;;;;;;;4.57;2.08;;;10.40;75.80;;;;;;8383308;28;20500;-67
2022/04/25 09:06:06;;;;;;;3.97;1.92;;;10.40;76.00;;;;;;8386246;28;20497;-67
2022/04/25 09:10:10;;;;;;;4.45;1.85;;;10.40;76.30;;;;;;8359880;28;20045;-67
2022/04/25 09:14:12;;;;;;;4.05;2.10;;;10.40;76.70;;;;;;8363034;28;20052;-67
2022/04/25 09:18:14;;;;;;;4.80;2.03;;;10.40;76.80;;;;;;8352721;28;20087;-67
2022/04/25 09:22:35;;;;;;;4.60;2.20;;;10.30;76.60;;;;;;8354903;28;20381;-67
2022/04/25 09:26:37;;;;;;;3.92;1.92;;;10.30;76.70;;;;;;8354310;28;20428;-67
2022/04/25 09:30:39;;;;;;;4.30;2.03;;;10.30;76.50;;;;;;8358350;28;20099;-67
2022/04/25 09:39:01;;;;;;;3.83;1.98;;;10.30;77.00;;;;;;8349649;28;20037;-67
2022/04/25 09:43:16;;;;;;;4.75;2.08;;;10.40;78.00;;;;;;8359087;28;20687;-67
2022/04/25 09:47:36;;;;;;;4.53;2.03;;;10.40;78.30;;;;;;8359753;28;20048;-67
2022/04/25 09:51:37;;;;;;;;;;;10.50;78.60;;;;;;8388901;28;20045;-67
2022/04/25 09:55:42;;;;;;;4.60;2.30;;;10.60;79.10;;;;;;8393844;28;19935;-67
2022/04/25 09:59:44;;;;;;;4.75;2.30;;;10.70;79.70;;;;;;8355349;28;20045;-67
2022/04/25 10:03:45;;;;;;;4.18;2.20;;;10.90;79.80;;;;;;8346275;28;19921;-67
2022/04/25 10:07:53;;;;;;;3.95;2.00;;;11.00;80.30;;;;;;8359389;28;20114;-67
2022/04/25 10:11:57;;;;;;;;;;;11.20;81.30;;;;;;8360470;28;20484;-67
2022/04/25 10:16:00;;;;;;;4.50;2.20;;;11.30;83.80;;;;;;8361077;28;25143;-67
2022/04/25 10:20:03;;;;;;;4.35;1.85;;;11.40;82.50;;;;;;8360632;28;20049;-67
2022/04/25 10:24:06;;;;;;;5.07;2.58;;;11.50;82.10;;;;;;8378462;28;20073;-67
2022/04/25 10:28:15;;;;;;;4.97;2.28;;;11.50;82.00;;;;;;8359870;28;20429;-67
2022/04/25 10:32:21;;;;;;;4.93;2.50;;;11.60;82.70;;;;;;8358426;28;20479;-67
2022/04/25 10:36:38;;;;;;;5.38;2.35;;;11.70;82.30;;;;;;8393534;27;20052;-67
2022/04/25 10:45:04;;;;;;;4.53;2.35;;;11.80;83.20;;;;;;8360048;28;20052;-67
2022/04/25 10:49:07;;;;;;;4.90;2.38;;;11.90;83.50;;;;;;8358194;28;20063;-67
2022/04/25 10:53:09;;;;;;;5.22;2.60;;;12.00;83.90;;;;;;8389697;27;20473;-67
2022/04/25 10:57:14;;;;;;;5.88;2.88;;;12.00;84.10;;;;;;8361040;28;20522;-67
2022/04/25 11:01:30;;;;;;;6.18;2.83;;;12.00;83.60;;;;;;8358010;28;20057;-67
2022/04/25 11:05:37;;;;;;;5.50;2.70;;;12.00;83.40;;;;;;8385498;27;20041;-67
2022/04/25 11:09:39;;;;;;;4.70;2.50;;;12.00;83.40;;;;;;8357741;28;20496;-67
2022/04/25 11:13:50;;;;;;;5.07;2.55;;;11.90;83.50;;;;;;8363146;28;20083;-67
2022/04/25 11:18:33;;;;;;;5.10;2.35;;;11.90;83.40;;;;;;8364811;28;20044;-67
2022/04/25 11:22:38;;;;;;;5.15;2.85;;;12.00;84.20;;;;;;8370629;28;20040;-67
2022/04/25 11:26:46;;;;;;;5.60;2.65;;;12.10;84.80;;;;;;8359079;28;20520;-67
2022/04/25 11:31:13;;;;;;;4.90;2.40;;;12.10;84.30;;;;;;8356958;28;20041;-67
2022/04/25 11:35:16;;;;;;;5.20;2.70;;;12.10;84.40;;;;;;8377780;28;20105;-67
2022/04/25 11:43:38;;;;;;;5.00;2.40;;;12.00;83.60;;;;;;8363078;28;20080;-67
2022/04/25 11:47:40;;;;;;;5.15;2.60;;;12.00;84.30;;;;;;8360736;28;20045;-67
2022/04/25 11:51:43;;;;;;;4.88;2.58;;;12.00;84.30;;;;;;8362424;28;20095;-67
2022/04/25 11:55:45;;;;;;;4.63;2.50;;;12.00;84.90;;;;;;8361907;28;20059;-67
2022/04/25 11:59:47;;;;;;;5.25;2.70;;;12.00;84.90;;;;;;8364643;28;20040;-67
2022/04/25 12:03:48;;;;;;;7.18;2.83;;;12.00;85.10;;;;;;8361206;28;20044;-67
2022/04/25 12:16:35;;;;;;;5.28;2.72;;;12.00;85.00;;;;;;8360684;28;20052;-67
2022/04/25 12:20:39;;;;;;;6.05;2.42;;;12.00;85.20;;;;;;8360975;28;20438;-67
2022/04/25 12:24:40;;;;;;;5.65;2.90;;;12.00;84.90;;;;;;8364359;28;20052;-67
2022/04/25 12:28:59;;;;;;;5.65;2.55;;;12.00;84.60;;;;;;8393316;28;20083;-67
2022/04/25 12:33:12;;;;;;;4.45;2.38;;;12.00;84.90;;;;;;8365000;28;20076;-67
2022/04/25 12:37:13;;;;;;;7.10;3.28;;;12.00;85.10;;;;;;8391305;28;20041;-67
2022/04/25 12:41:21;;;;;;;4.60;2.38;;;12.00;85.30;;;;;;8358386;28;20063;-67
2022/04/25 12:45:23;;;;;;;5.18;3.03;;;12.00;85.70;;;;;;8360464;28;20476;-67
2022/04/25 12:49:33;;;;;;;5.18;2.95;;;12.00;85.20;;;;;;8360823;28;20059;-67
2022/04/25 12:53:39;;;;;;;5.07;2.65;;;12.00;85.40;;;;;;8356264;28;20128;-67
2022/04/25 12:57:51;;;;;;;4.60;2.33;;;12.00;85.80;;;;;;8366056;28;20045;-67
2022/04/25 13:02:04;;;;;;;5.18;2.80;;;12.00;85.60;;;;;;8358818;28;20044;-67
2022/04/25 13:06:06;;;;;;;5.53;2.72;;;12.00;85.20;;;;;;8362966;28;20080;-67
2022/04/25 13:10:10;;;;;;;5.95;3.00;;;11.90;85.40;;;;;;8394609;28;20390;-67
2022/04/25 13:14:12;;;;;;;4.63;2.33;;;12.00;85.90;;;;;;8364524;28;20131;-67
2022/04/25 13:18:13;;;;;;;4.65;2.70;;;12.00;86.30;;;;;;8363245;28;20350;-67
2022/04/25 13:22:15;;;;;;;5.35;2.85;;;12.10;86.70;;;;;;8361962;28;20060;-67
2022/04/25 13:26:18;;;;;;;4.78;2.53;;;12.20;87.00;;;;;;8359220;28;20056;-67
2022/04/25 13:30:22;;;;;;;5.40;2.83;;;12.20;86.70;;;;;;8356619;28;20060;-67
2022/04/25 13:34:23;;;;;;;6.18;3.05;;;12.20;86.80;;;;;;8359923;28;20489;-67
2022/04/25 13:38:28;;;;;;;6.38;3.40;;;12.20;86.90;;;;;;8364449;28;20048;-67
2022/04/25 13:42:30;;;;;;;4.80;2.75;;;12.20;86.70;;;;;;8396455;28;20109;-67
2022/04/25 13:46:33;;;;;;;4.90;2.70;;;12.10;86.80;;;;;;8367957;28;20047;-67
2022/04/25 13:50:43;;;;;;;5.63;2.88;;;12.10;86.80;;;;;;8394337;28;20124;-67
2022/04/25 13:54:45;;;;;;;4.80;2.85;;;12.10;86.90;;;;;;8364972;28;20057;-67
2022/04/25 13:58:47;;;;;;;5.53;2.85;;;12.00;86.60;;;;;;8366144;28;20048;-67
2022/04/25 14:03:07;;;;;;;5.25;2.70;;;12.00;86.50;;;;;;8367417;28;20045;-67
2022/04/25 14:07:09;;;;;;;6.38;2.72;;;11.90;86.70;;;;;;8365396;28;20045;-67
2022/04/25 14:11:11;;;;;;;5.25;2.95;;;12.00;87.10;;;;;;8372791;28;20413;-67
2022/04/25 14:15:13;;;;;;;5.45;2.85;;;12.00;87.50;;;;;;8367350;28;20041;-67
2022/04/25 14:19:17;;;;;;;6.20;3.20;;;12.10;87.80;;;;;;8392056;28;20772;-67
2022/04/25 14:23:19;;;;;;;5.10;2.72;;;12.30;88.80;;;;;;8362809;28;20263;-67
2022/04/25 14:27:20;;;;;;;;;;;12.50;89.60;;;;;;8402715;28;20416;-67
2022/04/25 14:31:22;;;;;;;;;;;12.70;90.20;;;;;;8362594;28;19920;-67
2022/04/25 14:35:24;;;;;;;;;;;13.00;90.60;;;;;;8368327;28;19965;-67
2022/04/25 14:39:26;;;;;;;;;;;13.20;90.70;;;;;;8364197;28;19931;-67
2022/04/25 14:43:28;;;;;;;;;;;13.30;90.70;;;;;;8362208;28;20363;-67
2022/04/25 14:47:30;;;;;;;;;;;13.20;90.40;;;;;;8362115;28;19973;-67
2022/04/25 14:55:57;;;;;;;;;;;13.30;90.80;;;;;;8363995;28;19921;-67
2022/04/25 14:59:58;;;;;;;;;;;13.50;91.10;;;;;;8364627;28;19927;-67
2022/04/25 15:04:00;;;;;;;;;;;13.60;91.20;;;;;;8368687;28;19925;-67
2022/04/25 15:08:02;;;;;;;;;;;13.70;91.40;;;;;;8362783;28;20336;-67
2022/04/25 15:12:03;;;;;;;;;;;13.70;91.30;;;;;;8364249;28;19928;-67
2022/04/25 15:16:05;;;;;;;;;;;13.70;91.10;;;;;;8364070;28;19929;-67
2022/04/25 15:20:07;;;;;;;;;;;13.70;91.20;;;;;;8363903;28;19990;-67
2022/04/25 15:24:09;;;;;;;;;;;13.70;91.40;;;;;;8400464;27;19924;-67
2022/04/25 15:28:12;;;;;;;;;;;13.70;91.30;;;;;;8365719;28;19921;-67
2022/04/25 15:32:14;;;;;;;;;;;13.70;91.10;;;;;;8360960;28;19920;-67
2022/04/25 15:36:16;;;;;;;;;;;13.50;91.00;;;;;;8363281;28;19947;-67
2022/04/25 15:40:18;;;;;;;;;;;13.40;90.80;;;;;;8367409;28;19932;-67
2022/04/25 15:44:19;;;;;;;;;;;13.20;90.60;;;;;;8360487;28;20276;-67
2022/04/25 15:48:21;;;;;;;;;;;13.20;90.60;;;;;;8367479;28;19925;-67
2022/04/25 15:52:24;;;;;;;;;;;13.10;90.70;;;;;;8360578;28;20398;-67
2022/04/25 16:00:47;;;;;;;;;;;13.10;90.90;;;;;;8358008;28;20344;-67
2022/04/25 16:04:49;;;;;;;;;;;13.30;91.50;;;;;;8365446;28;19935;-67
2022/04/25 16:08:51;;;;;;;;;;;13.50;91.80;;;;;;8359529;28;19924;-67
2022/04/25 16:12:52;;;;;;;;;;;13.70;92.00;;;;;;8362182;28;20360;-67
2022/04/25 16:16:54;;;;;;;;;;;13.80;92.00;;;;;;8361712;28;19935;-67
2022/04/25 16:20:58;;;;;;;;;;;13.80;91.90;;;;;;8360575;28;20024;-67
2022/04/25 16:25:01;;;;;;;;;;;13.80;91.80;;;;;;8365223;28;19924;-67
2022/04/25 16:29:06;;;;;;;;;;;13.70;91.60;;;;;;8361719;28;19921;-67
2022/04/25 16:33:08;;;;;;;;;;;13.70;91.60;;;;;;8369744;28;19924;-67
2022/04/25 16:37:09;;;;;;;;;;;13.60;91.60;;;;;;8366607;28;19932;-67
2022/04/25 16:41:13;;;;;;;;;;;13.60;91.70;;;;;;8354071;28;19928;-67
2022/04/25 16:45:15;;;;;;;;;;;13.60;91.80;;;;;;8360120;28;20142;-67
2022/04/25 16:49:17;;;;;;;;;;;13.60;91.80;;;;;;8361342;28;20415;-67
2022/04/25 16:53:18;;;;;;;;;;;13.50;91.70;;;;;;8357378;28;19921;-67
2022/04/25 16:57:22;;;;;;;;;;;13.40;91.60;;;;;;8358954;28;19925;-67
2022/04/25 17:01:24;;;;;;;;;;;13.40;91.70;;;;;;8360319;28;19920;-67
2022/04/25 17:05:27;;;;;;;;;;;13.40;91.80;;;;;;8356112;28;20269;-67
2022/04/25 17:09:28;;;;;;;;;;;13.40;91.80;;;;;;8360650;28;19931;-67
2022/04/25 17:13:30;;;;;;;;;;;13.40;91.80;;;;;;8358567;28;19931;-67
2022/04/25 17:17:32;;;;;;;;;;;13.40;91.70;;;;;;8371362;28;20265;-67
2022/04/25 17:21:34;;;;;;;;;;;13.20;91.70;;;;;;8369534;28;19943;-67
2022/04/25 17:25:37;;;;;;;;;;;13.10;91.50;;;;;;8364050;28;19947;-67
2022/04/25 17:29:40;;;;;;;;;;;13.10;91.40;;;;;;8368851;28;20368;-67
